Time;durP1;ratioP1;P1;durP2;ratioP2;P2;SDS_P1;SDS_P2;PMS_P1;PMS_P2;Temp;Humidity;BMP_temperature;BMP_pressure;BME280_temperature;BME280_humidity;BME280_pressure;Samples;Min_cycle;Max_cycle;Signal;HPM_P1;HPM_P2
2024/02/22 00:00:14;;;;;;;1.23;0.50;;;12.50;99.90;;;;;;10103590;28;20037;-76
2024/02/22 00:05:05;;;;;;;1.15;0.65;;;12.50;99.90;;;;;;10092366;28;20471;-75
2024/02/22 00:09:57;;;;;;;1.58;0.40;;;12.60;99.90;;;;;;10106725;28;20039;-76
2024/02/22 00:14:47;;;;;;;0.98;0.40;;;12.60;99.90;;;;;;10082235;28;20036;-75
2024/02/22 00:19:38;;;;;;;2.00;0.60;;;12.50;99.90;;;;;;10119253;28;20040;-77
2024/02/22 00:24:29;;;;;;;0.50;0.50;;;12.60;99.90;;;;;;10093405;28;20029;-75
2024/02/22 00:29:19;;;;;;;0.55;0.50;;;12.60;99.90;;;;;;10110677;28;20373;-75
2024/02/22 00:34:13;;;;;;;1.20;0.57;;;12.60;99.90;;;;;;10080530;28;20025;-75
2024/02/22 00:39:04;;;;;;;0.85;0.40;;;12.60;99.90;;;;;;10088108;28;20036;-76
2024/02/22 00:43:55;;;;;;;0.95;0.50;;;12.60;99.90;;;;;;10082989;28;20036;-76
2024/02/22 00:48:46;;;;;;;1.08;0.30;;;12.50;99.90;;;;;;10104868;28;20631;-76
2024/02/22 00:53:37;;;;;;;0.55;0.45;;;12.50;99.90;;;;;;10116513;28;20029;-75
2024/02/22 00:58:28;;;;;;;0.88;0.60;;;12.50;99.90;;;;;;10095472;28;20048;-76
2024/02/22 01:03:21;;;;;;;0.60;0.40;;;12.50;99.90;;;;;;10113908;28;20028;-75
2024/02/22 01:08:14;;;;;;;0.93;0.28;;;12.50;99.90;;;;;;10108359;28;20028;-76
2024/02/22 01:13:05;;;;;;;0.40;0.40;;;12.40;99.90;;;;;;10101739;28;20035;-76
2024/02/22 01:17:56;;;;;;;0.50;0.40;;;12.50;99.90;;;;;;10105638;28;20402;-76
2024/02/22 01:22:50;;;;;;;1.30;0.40;;;12.50;99.90;;;;;;10088837;28;20402;-74
2024/02/22 01:27:40;;;;;;;0.20;0.20;;;12.50;99.90;;;;;;10099321;28;20087;-74
2024/02/22 01:32:31;;;;;;;0.35;0.35;;;12.50;99.90;;;;;;10128689;28;20024;-76
2024/02/22 01:37:22;;;;;;;1.25;0.50;;;12.50;99.90;;;;;;10122107;22;20128;-67
2024/02/22 01:42:12;;;;;;;1.05;0.32;;;12.50;99.90;;;;;;10104816;28;20600;-68
2024/02/22 01:47:03;;;;;;;0.73;0.50;;;12.50;99.90;;;;;;10096745;28;20025;-66
2024/02/22 01:52:04;;;;;;;0.30;0.28;;;12.40;99.90;;;;;;10096046;28;20032;-67
2024/02/22 01:56:55;;;;;;;0.15;0.10;;;12.40;99.90;;;;;;10101926;28;20101;-67
2024/02/22 02:01:50;;;;;;;0.30;0.30;;;12.50;99.90;;;;;;10110093;28;20634;-67
2024/02/22 02:06:42;;;;;;;0.20;0.20;;;12.30;99.90;;;;;;10096090;28;20051;-67
2024/02/22 02:11:33;;;;;;;0.43;0.30;;;12.40;99.90;;;;;;10098979;28;20021;-69
2024/02/22 02:16:24;;;;;;;0.28;0.28;;;12.30;99.90;;;;;;10095946;28;20029;-69
2024/02/22 02:21:39;;;;;;;1.20;0.30;;;12.30;99.90;;;;;;10095490;28;20128;-67
2024/02/22 02:26:29;;;;;;;2.22;1.40;;;12.30;99.90;;;;;;10095975;28;20017;-67
2024/02/22 02:37:07;;;;;;;1.88;0.55;;;12.20;99.90;;;;;;10107574;28;20091;-67
2024/02/22 02:41:59;;;;;;;0.70;0.60;;;12.10;99.90;;;;;;10097046;28;20056;-68
2024/02/22 02:46:49;;;;;;;2.00;0.55;;;12.10;99.90;;;;;;10095710;28;20024;-67
2024/02/22 02:57:27;;;;;;;0.63;0.38;;;12.10;99.90;;;;;;10099902;28;20040;-68
2024/02/22 03:02:20;;;;;;;0.65;0.50;;;12.10;99.90;;;;;;10094259;28;20525;-68
2024/02/22 03:07:10;;;;;;;1.55;0.40;;;12.00;99.90;;;;;;10102879;28;20054;-68
2024/02/22 03:12:01;;;;;;;0.95;0.40;;;12.00;99.90;;;;;;10102248;28;20062;-69
2024/02/22 03:16:52;;;;;;;0.38;0.38;;;12.00;99.90;;;;;;10102250;28;20025;-68
2024/02/22 03:21:42;;;;;;;0.77;0.70;;;12.00;99.90;;;;;;10084013;28;20064;-67
2024/02/22 03:26:33;;;;;;;0.82;0.50;;;12.00;99.90;;;;;;10101996;28;20025;-67
2024/02/22 03:31:24;;;;;;;0.65;0.60;;;12.00;99.90;;;;;;10102360;28;20036;-66
2024/02/22 03:36:15;;;;;;;0.95;0.57;;;12.00;99.90;;;;;;10100791;28;20415;-66
2024/02/22 03:41:06;;;;;;;1.48;0.40;;;11.90;99.90;;;;;;10111245;28;20090;-66
2024/02/22 03:45:57;;;;;;;2.75;0.50;;;11.90;99.90;;;;;;10091713;28;20028;-67
2024/02/22 03:50:48;;;;;;;1.48;0.63;;;11.90;99.90;;;;;;10109525;28;20124;-67
2024/02/22 03:55:38;;;;;;;0.95;0.50;;;11.90;99.90;;;;;;10108886;28;20052;-68
2024/02/22 04:00:29;;;;;;;0.63;0.50;;;11.90;99.90;;;;;;10082325;28;20029;-67
2024/02/22 04:05:20;;;;;;;1.92;0.70;;;11.80;99.90;;;;;;10099097;28;20021;-67
2024/02/22 04:10:11;;;;;;;1.05;0.88;;;11.90;99.90;;;;;;10099950;28;20020;-67
2024/02/22 04:15:02;;;;;;;0.45;0.45;;;11.90;99.90;;;;;;10081811;28;20029;-67
2024/02/22 04:19:55;;;;;;;2.47;0.70;;;11.90;99.90;;;;;;10101810;28;20087;-68
2024/02/22 04:24:45;;;;;;;1.55;0.85;;;11.90;99.90;;;;;;10107396;28;20059;-66
2024/02/22 04:29:36;;;;;;;1.15;0.80;;;11.80;99.90;;;;;;10114138;28;20486;-66
2024/02/22 04:34:27;;;;;;;0.73;0.60;;;11.80;99.90;;;;;;10118860;28;20040;-68
2024/02/22 04:39:18;;;;;;;0.57;0.40;;;11.80;99.90;;;;;;10124392;28;20049;-66
2024/02/22 04:44:09;;;;;;;0.82;0.55;;;11.80;99.90;;;;;;10119026;28;20402;-67
2024/02/22 04:49:04;;;;;;;0.90;0.60;;;11.70;99.90;;;;;;10121581;28;20025;-70
2024/02/22 04:53:55;;;;;;;0.85;0.40;;;11.80;99.90;;;;;;10111910;28;20114;-67
2024/02/22 04:58:46;;;;;;;0.57;0.38;;;11.80;99.90;;;;;;10097345;28;20041;-68
2024/02/22 05:03:37;;;;;;;0.75;0.70;;;11.70;99.90;;;;;;10101227;28;20029;-66
2024/02/22 05:08:27;;;;;;;0.82;0.55;;;11.70;99.90;;;;;;10098443;28;20063;-68
2024/02/22 05:13:19;;;;;;;1.10;0.82;;;11.80;99.90;;;;;;10097467;28;20113;-66
2024/02/22 05:18:11;;;;;;;1.23;0.60;;;11.70;99.90;;;;;;10106918;28;20605;-67
2024/02/22 05:23:01;;;;;;;2.78;0.60;;;11.80;99.90;;;;;;10113306;28;20119;-67
2024/02/22 05:27:52;;;;;;;2.10;0.88;;;11.70;99.90;;;;;;10123222;28;20100;-66
2024/02/22 05:32:43;;;;;;;1.02;0.93;;;11.70;99.90;;;;;;10128993;28;20111;-67
2024/02/22 05:37:33;;;;;;;0.82;0.55;;;11.70;99.90;;;;;;10132804;28;20052;-66
2024/02/22 05:42:24;;;;;;;1.35;0.75;;;11.80;99.90;;;;;;10097903;28;20628;-67
2024/02/22 05:47:15;;;;;;;1.35;0.60;;;11.70;99.90;;;;;;10099546;28;20021;-67
2024/02/22 05:52:06;;;;;;;1.02;0.93;;;11.70;99.90;;;;;;10096942;28;20116;-68
2024/02/22 05:56:56;;;;;;;1.70;0.80;;;11.70;99.90;;;;;;10106293;28;20040;-66
2024/02/22 06:01:49;;;;;;;3.10;0.82;;;11.70;99.90;;;;;;10096146;28;20032;-66
2024/02/22 06:06:39;;;;;;;0.50;0.50;;;11.70;99.90;;;;;;10095805;28;20043;-66
2024/02/22 06:11:30;;;;;;;1.25;0.50;;;11.70;99.90;;;;;;10095914;28;20502;-67
2024/02/22 06:16:21;;;;;;;1.15;0.60;;;11.70;99.90;;;;;;10095067;28;20466;-67
2024/02/22 06:21:11;;;;;;;0.50;0.40;;;11.70;99.90;;;;;;10103539;28;20039;-67
2024/02/22 06:26:03;;;;;;;0.82;0.47;;;11.80;99.90;;;;;;10110318;28;20120;-67
2024/02/22 06:30:55;;;;;;;1.75;0.85;;;11.80;99.90;;;;;;10117273;28;20028;-67
2024/02/22 06:35:45;;;;;;;0.50;0.40;;;11.80;99.90;;;;;;10106725;28;20069;-68
2024/02/22 06:40:50;;;;;;;0.40;0.40;;;11.80;99.90;;;;;;10103675;28;20048;-67
2024/02/22 06:45:41;;;;;;;0.60;0.40;;;11.80;99.90;;;;;;10085700;28;20025;-67
2024/02/22 06:50:31;;;;;;;1.20;0.50;;;11.70;99.90;;;;;;10103401;28;20500;-67
2024/02/22 06:55:24;;;;;;;0.40;0.40;;;11.80;99.90;;;;;;10114432;28;20024;-67
2024/02/22 07:00:15;;;;;;;1.75;0.70;;;11.80;99.90;;;;;;10117198;28;20037;-67
2024/02/22 07:05:06;;;;;;;0.50;0.50;;;11.80;99.90;;;;;;10108870;28;20469;-67
2024/02/22 07:09:57;;;;;;;0.50;0.40;;;11.70;99.90;;;;;;10113445;28;20075;-67
2024/02/22 07:14:47;;;;;;;0.50;0.45;;;11.80;99.90;;;;;;10120235;28;20031;-67
2024/02/22 07:19:42;;;;;;;0.80;0.68;;;11.80;99.90;;;;;;10127554;28;20488;-68
2024/02/22 07:24:32;;;;;;;0.82;0.55;;;11.80;99.90;;;;;;10120916;28;20112;-68
2024/02/22 07:29:24;;;;;;;0.52;0.30;;;11.80;99.90;;;;;;10101796;28;20198;-68
2024/02/22 07:34:15;;;;;;;0.47;0.25;;;11.80;99.90;;;;;;10082957;28;20081;-68
2024/02/22 07:39:06;;;;;;;2.13;0.25;;;11.80;99.90;;;;;;10104323;28;20056;-67
2024/02/22 07:43:56;;;;;;;1.08;0.57;;;11.80;99.90;;;;;;10103445;28;20040;-67
2024/02/22 07:48:47;;;;;;;1.20;0.38;;;11.80;99.90;;;;;;10107243;28;20032;-68
2024/02/22 07:53:38;;;;;;;0.30;0.30;;;11.90;99.90;;;;;;10129531;28;20044;-68
2024/02/22 07:58:31;;;;;;;0.60;0.20;;;11.90;99.90;;;;;;10116394;28;20025;-67
2024/02/22 08:03:22;;;;;;;0.47;0.32;;;11.80;99.90;;;;;;10093266;28;20044;-67
2024/02/22 08:08:15;;;;;;;0.32;0.25;;;11.80;99.90;;;;;;10100483;28;20390;-67
2024/02/22 08:13:06;;;;;;;2.28;0.52;;;11.90;99.90;;;;;;10110653;28;20032;-66
2024/02/22 08:17:56;;;;;;;0.70;0.30;;;11.80;99.90;;;;;;10100197;28;20069;-67
2024/02/22 08:22:47;;;;;;;0.88;0.40;;;11.80;99.90;;;;;;10082529;28;20025;-66
2024/02/22 08:27:37;;;;;;;0.35;0.30;;;11.90;99.90;;;;;;10082957;28;20506;-66
2024/02/22 08:32:28;;;;;;;0.25;0.15;;;11.90;99.90;;;;;;10099364;28;20040;-66
2024/02/22 08:37:19;;;;;;;0.20;0.20;;;11.90;99.90;;;;;;10104364;28;20122;-67
2024/02/22 08:42:09;;;;;;;0.20;0.13;;;11.90;99.90;;;;;;10106849;28;20563;-67
2024/02/22 08:47:03;;;;;;;0.40;0.20;;;12.00;99.90;;;;;;10103210;28;20013;-68
2024/02/22 08:51:54;;;;;;;0.32;0.30;;;12.00;99.90;;;;;;10098288;28;20134;-66
2024/02/22 08:56:46;;;;;;;0.40;0.20;;;12.00;99.90;;;;;;10098983;28;20540;-67
2024/02/22 09:01:36;;;;;;;0.32;0.32;;;12.00;99.90;;;;;;10098160;28;20075;-68
2024/02/22 09:06:27;;;;;;;1.55;0.30;;;12.00;99.90;;;;;;10098678;28;20063;-68
2024/02/22 09:11:18;;;;;;;0.47;0.30;;;12.00;99.90;;;;;;10098263;28;20553;-68
2024/02/22 09:16:08;;;;;;;0.73;0.40;;;12.00;99.90;;;;;;10097213;28;20517;-68
2024/02/22 09:20:59;;;;;;;0.40;0.30;;;12.10;99.90;;;;;;10098219;28;20094;-67
2024/02/22 09:25:50;;;;;;;0.57;0.20;;;12.10;99.90;;;;;;10097358;28;20032;-67
2024/02/22 09:30:42;;;;;;;0.70;0.60;;;12.10;99.90;;;;;;10106203;28;20021;-66
2024/02/22 09:35:34;;;;;;;0.20;0.17;;;12.10;99.90;;;;;;10097303;28;20419;-67
2024/02/22 09:40:25;;;;;;;0.52;0.30;;;12.10;99.90;;;;;;10099313;28;20048;-67
2024/02/22 09:45:16;;;;;;;1.27;0.32;;;12.10;99.90;;;;;;10101946;28;20096;-69
2024/02/22 09:50:10;;;;;;;0.20;0.20;;;12.10;99.90;;;;;;10096692;28;20021;-67
2024/02/22 09:55:01;;;;;;;1.00;0.57;;;12.10;99.90;;;;;;10096562;28;20039;-68
2024/02/22 09:59:52;;;;;;;1.55;0.57;;;12.10;99.90;;;;;;10097086;28;20044;-67
2024/02/22 10:04:55;;;;;;;0.88;0.50;;;12.10;99.90;;;;;;10095899;28;20032;-67
2024/02/22 10:09:45;;;;;;;0.90;0.30;;;12.10;99.90;;;;;;10096209;28;20064;-67
2024/02/22 10:14:36;;;;;;;1.05;0.40;;;12.10;99.90;;;;;;10095713;28;20075;-66
2024/02/22 10:19:27;;;;;;;1.48;0.43;;;12.20;99.90;;;;;;10096898;28;20119;-67
2024/02/22 10:24:26;;;;;;;0.75;0.47;;;12.10;99.90;;;;;;10101886;28;20103;-68
2024/02/22 10:29:16;;;;;;;1.20;0.47;;;12.10;99.90;;;;;;10107734;28;20493;-68
2024/02/22 10:34:08;;;;;;;0.65;0.30;;;12.10;99.90;;;;;;10112810;28;20033;-67
2024/02/22 10:38:59;;;;;;;0.40;0.30;;;12.10;99.90;;;;;;10111335;28;20162;-67
2024/02/22 10:43:52;;;;;;;0.40;0.28;;;12.10;99.90;;;;;;10082932;28;20187;-66
2024/02/22 10:48:49;;;;;;;0.38;0.32;;;12.20;99.90;;;;;;10108041;28;20032;-67
2024/02/22 10:53:43;;;;;;;0.57;0.30;;;12.30;99.90;;;;;;10095440;28;20052;-68
2024/02/22 10:58:37;;;;;;;1.27;0.57;;;12.20;99.90;;;;;;10095066;28;20037;-68
2024/02/22 11:03:30;;;;;;;0.47;0.30;;;12.30;99.90;;;;;;10094396;28;20017;-66
2024/02/22 11:08:21;;;;;;;0.73;0.38;;;12.30;99.90;;;;;;10095335;28;20018;-69
2024/02/22 11:13:14;;;;;;;0.95;0.70;;;12.40;99.90;;;;;;10094621;28;20013;-67
2024/02/22 11:18:04;;;;;;;0.88;0.43;;;12.40;99.90;;;;;;10090812;28;20129;-68
2024/02/22 11:22:55;;;;;;;0.82;0.43;;;12.40;99.90;;;;;;10112128;28;20100;-68
2024/02/22 11:27:57;;;;;;;1.13;0.50;;;12.40;99.90;;;;;;10111944;28;20694;-67
2024/02/22 11:32:49;;;;;;;1.05;0.68;;;12.50;99.90;;;;;;10101925;28;20037;-66
2024/02/22 11:37:39;;;;;;;0.65;0.60;;;12.50;99.90;;;;;;10112602;28;20422;-67
2024/02/22 11:42:30;;;;;;;1.20;0.57;;;12.50;99.90;;;;;;10101498;28;20132;-69
2024/02/22 11:47:21;;;;;;;0.75;0.50;;;12.50;99.90;;;;;;10101729;28;20505;-67
2024/02/22 11:52:12;;;;;;;0.90;0.57;;;12.50;99.90;;;;;;10100764;28;20021;-67
2024/02/22 11:57:03;;;;;;;1.10;0.77;;;12.50;99.90;;;;;;10109695;28;20036;-67
2024/02/22 12:01:55;;;;;;;3.45;0.82;;;12.50;99.90;;;;;;10100306;28;20045;-67
2024/02/22 12:06:45;;;;;;;2.35;0.55;;;12.50;99.90;;;;;;10097346;28;20108;-67
2024/02/22 12:11:36;;;;;;;0.95;0.55;;;12.60;99.90;;;;;;10099783;28;20465;-67
2024/02/22 12:16:27;;;;;;;1.67;0.90;;;12.70;99.90;;;;;;10100084;28;20082;-66
2024/02/22 12:21:23;;;;;;;3.88;0.82;;;12.60;99.90;;;;;;10102869;28;20037;-67
2024/02/22 12:26:18;;;;;;;0.68;0.40;;;12.70;99.90;;;;;;10104763;28;20108;-67
2024/02/22 12:31:09;;;;;;;0.75;0.60;;;12.60;99.90;;;;;;10109233;28;20084;-68
2024/02/22 12:36:03;;;;;;;0.47;0.47;;;12.60;99.90;;;;;;10109708;28;20023;-67
2024/02/22 12:40:54;;;;;;;2.03;0.57;;;12.60;99.90;;;;;;10098506;28;20049;-67
2024/02/22 12:45:47;;;;;;;1.15;0.60;;;12.60;99.90;;;;;;10098920;28;20491;-67
2024/02/22 12:50:38;;;;;;;0.55;0.40;;;12.60;99.90;;;;;;10098798;28;20040;-67
2024/02/22 12:55:29;;;;;;;1.23;0.60;;;12.60;99.90;;;;;;10098420;28;20017;-68
2024/02/22 13:00:20;;;;;;;0.50;0.45;;;12.60;99.90;;;;;;10098221;28;20048;-67
2024/02/22 13:05:10;;;;;;;0.70;0.50;;;12.60;99.90;;;;;;10095690;28;20037;-68
2024/02/22 13:10:01;;;;;;;0.38;0.38;;;12.60;99.90;;;;;;10064911;28;20125;-68
2024/02/22 13:14:52;;;;;;;1.23;0.45;;;12.60;99.90;;;;;;10098959;28;20346;-68
2024/02/22 13:19:42;;;;;;;1.10;0.88;;;12.70;99.90;;;;;;10101255;28;20037;-68
2024/02/22 13:24:33;;;;;;;0.98;0.60;;;12.70;99.90;;;;;;10100056;28;20029;-68
2024/02/22 13:29:24;;;;;;;0.60;0.50;;;12.70;99.90;;;;;;10100566;28;20071;-67
2024/02/22 13:34:15;;;;;;;1.05;0.50;;;12.70;99.90;;;;;;10096134;28;20063;-67
2024/02/22 13:39:07;;;;;;;1.48;0.45;;;12.60;99.90;;;;;;10095816;28;20064;-67
2024/02/22 13:43:58;;;;;;;1.13;0.60;;;12.70;99.90;;;;;;10096307;28;20632;-68
2024/02/22 13:48:50;;;;;;;0.85;0.60;;;12.80;99.90;;;;;;10102056;28;20047;-66
2024/02/22 13:53:40;;;;;;;1.60;0.65;;;12.80;99.90;;;;;;10122374;28;20078;-67
2024/02/22 13:58:37;;;;;;;1.00;0.50;;;12.90;99.90;;;;;;10107094;28;20112;-66
2024/02/22 14:03:28;;;;;;;0.80;0.43;;;12.90;99.90;;;;;;10112387;28;20633;-68
2024/02/22 14:08:19;;;;;;;1.10;0.57;;;12.90;99.90;;;;;;10117294;28;20086;-67
2024/02/22 14:13:11;;;;;;;1.05;0.60;;;12.90;99.90;;;;;;10098573;28;20146;-73
2024/02/22 14:18:02;;;;;;;3.47;1.65;;;12.90;99.90;;;;;;10095438;28;20183;-69
2024/02/22 14:22:53;;;;;;;2.35;0.60;;;13.00;99.90;;;;;;10100915;28;20027;-72
2024/02/22 14:27:43;;;;;;;1.38;0.80;;;13.00;99.90;;;;;;10095004;28;20040;-68
2024/02/22 14:32:34;;;;;;;1.05;0.77;;;13.00;99.90;;;;;;10094638;28;20033;-68
2024/02/22 14:37:25;;;;;;;1.00;0.60;;;13.00;99.90;;;;;;10094776;28;20164;-68
2024/02/22 14:42:17;;;;;;;1.35;0.68;;;13.00;99.90;;;;;;10095214;28;20036;-67
2024/02/22 14:47:08;;;;;;;0.77;0.50;;;13.00;99.90;;;;;;10095189;28;20033;-68
2024/02/22 14:51:59;;;;;;;1.45;0.63;;;13.00;99.90;;;;;;10099549;28;20028;-69
2024/02/22 14:56:50;;;;;;;2.25;0.85;;;13.10;99.90;;;;;;10102062;28;20029;-69
2024/02/22 15:01:41;;;;;;;2.35;0.60;;;13.10;99.90;;;;;;10101700;28;20041;-67
2024/02/22 15:06:31;;;;;;;1.38;0.60;;;13.10;99.90;;;;;;10084159;28;20124;-69
2024/02/22 15:11:22;;;;;;;1.52;0.60;;;13.10;99.90;;;;;;10113006;28;20028;-68
2024/02/22 15:16:13;;;;;;;0.40;0.40;;;13.00;99.90;;;;;;10101912;28;20021;-68
2024/02/22 15:21:04;;;;;;;0.45;0.40;;;13.10;99.90;;;;;;10101504;28;20110;-68
2024/02/22 15:25:54;;;;;;;0.55;0.30;;;13.00;99.90;;;;;;10101437;28;20518;-67
2024/02/22 15:30:45;;;;;;;1.17;0.40;;;13.00;99.90;;;;;;10101455;28;20068;-69
2024/02/22 15:35:35;;;;;;;1.15;0.60;;;13.00;99.90;;;;;;10085867;28;20032;-69
2024/02/22 15:40:26;;;;;;;1.00;0.60;;;13.00;99.90;;;;;;10100439;28;20477;-68
2024/02/22 15:45:17;;;;;;;1.63;0.60;;;12.90;99.90;;;;;;10103379;28;20409;-69
2024/02/22 15:50:08;;;;;;;1.13;0.65;;;12.90;99.90;;;;;;10088496;28;20035;-70
2024/02/22 15:54:59;;;;;;;1.05;0.63;;;12.90;99.90;;;;;;10102017;28;20071;-69
2024/02/22 15:59:51;;;;;;;0.85;0.50;;;12.90;99.90;;;;;;10103169;28;20502;-70
2024/02/22 16:04:41;;;;;;;1.27;0.60;;;12.90;99.90;;;;;;10100128;28;20060;-68
2024/02/22 16:09:32;;;;;;;0.95;0.50;;;12.90;99.90;;;;;;10095313;28;20036;-69
2024/02/22 16:14:23;;;;;;;1.33;1.20;;;12.90;99.90;;;;;;10097864;28;20108;-67
2024/02/22 16:19:14;;;;;;;0.80;0.45;;;13.00;99.90;;;;;;10100083;28;20086;-67
2024/02/22 16:24:05;;;;;;;4.80;1.48;;;13.00;99.90;;;;;;10101212;28;20491;-68
2024/02/22 16:28:56;;;;;;;0.88;0.80;;;13.00;99.90;;;;;;10108706;28;20441;-67
2024/02/22 16:33:47;;;;;;;1.83;0.70;;;13.10;99.90;;;;;;10102308;28;20043;-68
2024/02/22 16:38:38;;;;;;;1.17;0.80;;;13.00;99.90;;;;;;10103099;28;20120;-68
2024/02/22 16:43:32;;;;;;;1.45;0.88;;;13.00;99.90;;;;;;10080541;28;20116;-69
2024/02/22 16:48:23;;;;;;;2.35;0.70;;;13.00;99.90;;;;;;10098768;28;20029;-68
2024/02/22 16:53:14;;;;;;;0.93;0.60;;;13.00;99.90;;;;;;10099483;28;20037;-69
2024/02/22 16:58:05;;;;;;;1.10;0.90;;;13.00;99.90;;;;;;10082178;28;20032;-69
2024/02/22 17:02:55;;;;;;;1.17;0.80;;;13.10;99.90;;;;;;10102250;28;20425;-70
2024/02/22 17:07:46;;;;;;;0.85;0.50;;;13.00;99.90;;;;;;10101530;28;20048;-69
2024/02/22 17:12:37;;;;;;;0.95;0.70;;;13.00;99.90;;;;;;10111316;28;20273;-68
2024/02/22 17:17:34;;;;;;;2.55;0.93;;;13.10;99.90;;;;;;10105490;28;20119;-68
2024/02/22 17:22:25;;;;;;;1.45;0.77;;;13.10;99.90;;;;;;10097227;28;20379;-70
2024/02/22 17:27:16;;;;;;;0.93;0.68;;;13.00;99.90;;;;;;10098190;28;20017;-71
2024/02/22 17:32:06;;;;;;;2.30;0.90;;;13.10;99.90;;;;;;10097642;28;20025;-70
2024/02/22 17:36:57;;;;;;;1.38;0.75;;;13.10;99.90;;;;;;10101240;28;20099;-69
2024/02/22 17:41:48;;;;;;;1.90;0.70;;;13.10;99.90;;;;;;10093305;28;20127;-69
2024/02/22 17:46:38;;;;;;;1.00;0.60;;;13.10;99.90;;;;;;10097350;28;20071;-70
2024/02/22 17:51:29;;;;;;;1.95;0.52;;;13.10;99.90;;;;;;10099175;28;20036;-69
2024/02/22 17:56:22;;;;;;;1.25;0.80;;;13.10;99.90;;;;;;10096482;28;20106;-70
2024/02/22 18:01:12;;;;;;;2.80;0.70;;;13.20;99.90;;;;;;10094668;28;20032;-70
2024/02/22 18:06:03;;;;;;;1.65;0.80;;;13.20;99.90;;;;;;10094507;28;20021;-70
2024/02/22 18:10:54;;;;;;;1.10;0.70;;;13.20;99.90;;;;;;10100104;28;20045;-67
2024/02/22 18:15:45;;;;;;;1.33;0.63;;;13.20;99.90;;;;;;10077427;28;20029;-68
2024/02/22 18:20:36;;;;;;;1.63;0.50;;;13.30;99.90;;;;;;10068502;28;20045;-68
2024/02/22 18:25:27;;;;;;;1.25;0.95;;;13.20;99.90;;;;;;10109770;28;20035;-69
2024/02/22 18:30:17;;;;;;;1.13;0.70;;;13.20;99.90;;;;;;10101654;28;20550;-70
2024/02/22 18:35:08;;;;;;;1.50;0.63;;;13.30;99.90;;;;;;10112594;28;20061;-69
2024/02/22 18:39:59;;;;;;;0.88;0.52;;;13.30;99.90;;;;;;10107614;28;20052;-69
2024/02/22 18:44:50;;;;;;;1.65;0.63;;;13.30;99.90;;;;;;10103172;28;20052;-69
2024/02/22 18:49:41;;;;;;;1.73;1.00;;;13.30;99.90;;;;;;10102954;28;20479;-70
2024/02/22 18:54:35;;;;;;;1.10;0.80;;;13.30;99.90;;;;;;10102491;28;20091;-68
2024/02/22 18:59:26;;;;;;;0.88;0.65;;;13.30;99.90;;;;;;10085137;28;20049;-69
2024/02/22 19:04:20;;;;;;;1.27;0.90;;;13.40;99.90;;;;;;10103836;28;20044;-69
2024/02/22 19:09:12;;;;;;;1.50;0.80;;;13.30;99.90;;;;;;10107167;28;20697;-69
2024/02/22 19:14:02;;;;;;;2.35;0.50;;;13.30;99.90;;;;;;10101124;28;20564;-70
2024/02/22 19:18:55;;;;;;;0.68;0.38;;;12.60;99.90;;;;;;10083433;28;20037;-71
2024/02/22 19:23:46;;;;;;;0.60;0.40;;;11.90;99.90;;;;;;10110905;28;20017;-70
2024/02/22 19:28:45;;;;;;;0.50;0.30;;;11.70;99.90;;;;;;10107869;28;20021;-70
2024/02/22 19:33:37;;;;;;;0.77;0.45;;;11.70;99.90;;;;;;10074876;28;20052;-71
2024/02/22 19:38:28;;;;;;;1.52;0.43;;;11.80;99.90;;;;;;10100914;28;20044;-68
2024/02/22 19:43:20;;;;;;;0.80;0.38;;;11.90;99.90;;;;;;10104513;28;20036;-69
2024/02/22 19:48:11;;;;;;;0.82;0.40;;;12.00;99.90;;;;;;10106545;28;20450;-67
2024/02/22 19:53:08;;;;;;;0.38;0.38;;;12.00;99.90;;;;;;10125484;28;20040;-68
2024/02/22 19:58:00;;;;;;;0.50;0.35;;;12.00;99.90;;;;;;10107786;28;20060;-70
2024/02/22 20:02:51;;;;;;;0.98;0.43;;;12.10;99.90;;;;;;10113400;28;20458;-73
2024/02/22 20:07:42;;;;;;;0.77;0.30;;;12.20;99.90;;;;;;10104458;28;20107;-69
2024/02/22 20:12:33;;;;;;;2.05;0.60;;;12.10;99.90;;;;;;10104224;28;20104;-70
2024/02/22 20:17:23;;;;;;;1.88;0.50;;;12.20;99.90;;;;;;10113920;28;20438;-69
2024/02/22 20:22:14;;;;;;;0.68;0.35;;;12.20;99.90;;;;;;10111583;28;20037;-72
2024/02/22 20:27:08;;;;;;;0.82;0.50;;;12.30;99.90;;;;;;10106075;28;20523;-70
2024/02/22 20:32:04;;;;;;;0.65;0.30;;;12.20;99.90;;;;;;10086890;28;20056;-70
2024/02/22 20:36:55;;;;;;;2.30;0.52;;;12.20;99.90;;;;;;10083656;28;20045;-68
2024/02/22 20:41:46;;;;;;;0.40;0.40;;;12.20;99.90;;;;;;10079391;28;20554;-70
2024/02/22 20:46:37;;;;;;;0.82;0.38;;;12.20;99.90;;;;;;10079562;28;20099;-71
2024/02/22 20:51:29;;;;;;;0.45;0.35;;;12.30;99.90;;;;;;10104239;28;20067;-69
2024/02/22 20:56:20;;;;;;;1.35;0.40;;;12.30;99.90;;;;;;10108424;28;20025;-68
2024/02/22 21:01:11;;;;;;;0.38;0.30;;;12.20;99.90;;;;;;10106189;28;20398;-68
2024/02/22 21:06:02;;;;;;;1.45;0.55;;;12.30;99.90;;;;;;10090699;28;20021;-68
2024/02/22 21:10:57;;;;;;;0.82;0.50;;;12.20;99.90;;;;;;10086133;28;20120;-68
2024/02/22 21:15:48;;;;;;;1.05;0.60;;;12.30;99.90;;;;;;10102501;28;20017;-67
2024/02/22 21:20:39;;;;;;;3.45;0.55;;;12.10;99.90;;;;;;10083059;28;20057;-69
2024/02/22 21:25:29;;;;;;;1.27;0.57;;;11.60;99.90;;;;;;10115379;28;20028;-70
2024/02/22 21:30:20;;;;;;;0.15;0.10;;;10.30;99.90;;;;;;10102806;28;20055;-71
2024/02/22 21:35:11;;;;;;;0.10;0.08;;;9.50;99.90;;;;;;10104643;28;20103;-72
2024/02/22 21:40:05;;;;;;;0.75;0.22;;;9.30;99.90;;;;;;10100580;28;20065;-73
2024/02/22 21:44:55;;;;;;;0.20;0.10;;;9.40;99.90;;;;;;10106657;28;20068;-71
2024/02/22 21:49:47;;;;;;;0.38;0.20;;;9.30;99.90;;;;;;10100550;28;20521;-73
2024/02/22 21:54:37;;;;;;;0.03;0.03;;;9.30;99.90;;;;;;10097084;28;20040;-72
2024/02/22 21:59:28;;;;;;;0.55;0.30;;;9.40;99.90;;;;;;10076246;28;20469;-72
2024/02/22 22:04:19;;;;;;;0.47;0.30;;;9.60;99.90;;;;;;10080961;28;20037;-73
2024/02/22 22:09:09;;;;;;;0.57;0.30;;;9.70;99.90;;;;;;10099276;28;20058;-71
2024/02/22 22:14:01;;;;;;;0.13;0.13;;;9.70;99.90;;;;;;10104663;28;20413;-72
2024/02/22 22:18:52;;;;;;;2.17;0.60;;;9.80;99.90;;;;;;10093141;28;20033;-73
2024/02/22 22:23:43;;;;;;;0.10;0.10;;;9.80;99.90;;;;;;10100475;28;20108;-71
2024/02/22 22:28:33;;;;;;;0.57;0.28;;;9.80;99.90;;;;;;10077714;28;20121;-71
2024/02/22 22:33:24;;;;;;;2.35;0.30;;;9.90;99.90;;;;;;10091312;28;20104;-72
2024/02/22 22:38:14;;;;;;;0.25;0.25;;;9.80;99.90;;;;;;10099274;28;20061;-72
2024/02/22 22:43:05;;;;;;;0.20;0.20;;;9.80;99.90;;;;;;10095724;28;20044;-72
2024/02/22 22:47:58;;;;;;;0.40;0.40;;;9.80;99.90;;;;;;10096000;28;20051;-72
2024/02/22 22:52:49;;;;;;;1.15;0.30;;;9.80;99.90;;;;;;10096014;28;20059;-72
2024/02/22 22:57:40;;;;;;;0.65;0.13;;;9.80;99.90;;;;;;10099780;28;20020;-71
2024/02/22 23:02:30;;;;;;;0.73;0.20;;;9.90;99.90;;;;;;10102522;28;20040;-72
2024/02/22 23:07:21;;;;;;;1.75;1.52;;;9.90;99.90;;;;;;10095642;28;20769;-71
2024/02/22 23:12:12;;;;;;;0.65;0.55;;;9.90;99.90;;;;;;10111001;28;20032;-72
2024/02/22 23:17:02;;;;;;;0.32;0.28;;;9.90;99.90;;;;;;10106899;28;20482;-70
2024/02/22 23:21:53;;;;;;;1.10;0.60;;;9.90;99.90;;;;;;10103863;28;20036;-70
2024/02/22 23:26:45;;;;;;;0.98;0.50;;;10.00;99.90;;;;;;10103463;28;20025;-70
2024/02/22 23:31:35;;;;;;;3.55;0.75;;;10.00;99.90;;;;;;10101782;28;20056;-70
2024/02/22 23:36:29;;;;;;;1.90;0.70;;;10.10;99.90;;;;;;10102048;28;20017;-69
2024/02/22 23:41:20;;;;;;;2.13;0.30;;;10.10;99.90;;;;;;10102577;28;20029;-69
2024/02/22 23:46:10;;;;;;;2.13;1.17;;;10.20;99.90;;;;;;10101165;28;20017;-69
2024/02/22 23:51:02;;;;;;;1.00;0.90;;;10.10;99.90;;;;;;10101266;28;20082;-69
2024/02/22 23:55:52;;;;;;;1.40;0.40;;;10.00;99.90;;;;;;10108759;28;20028;-69
